createdAt,value
2023-01-04T00:01:50.343Z,5.509949
2023-01-04T00:05:15.553Z,5.53009
2023-01-04T00:08:40.704Z,5.479736
2023-01-04T00:12:05.929Z,5.540161
2023-01-04T00:15:31.179Z,5.600586
2023-01-04T00:18:56.317Z,5.560303
2023-01-04T00:22:21.503Z,5.540161
2023-01-04T00:25:46.721Z,5.540161
2023-01-04T00:29:12.015Z,5.429382
2023-01-04T00:32:37.217Z,5.449524
2023-01-04T00:36:02.442Z,5.39917
2023-01-04T00:39:27.669Z,5.389099
2023-01-04T00:42:52.876Z,5.39917
2023-01-04T00:46:18.155Z,5.379028
2023-01-04T00:49:43.321Z,5.449524
2023-01-04T00:53:08.531Z,5.509949
2023-01-04T00:56:33.785Z,5.560303
2023-01-04T00:59:58.991Z,5.570374
2023-01-04T01:03:24.379Z,5.540161
2023-01-04T01:06:49.448Z,5.53009
2023-01-04T01:10:14.684Z,5.489807
2023-01-04T01:13:39.895Z,5.459595
2023-01-04T01:17:05.191Z,5.449524
2023-01-04T01:20:30.369Z,5.449524
2023-01-04T01:23:55.549Z,5.419312
2023-01-04T01:27:20.769Z,5.389099
2023-01-04T01:30:46.017Z,5.389099
2023-01-04T01:34:11.207Z,5.379028
2023-01-04T01:37:36.460Z,5.308533
2023-01-04T01:41:01.633Z,5.379028
2023-01-04T01:44:26.866Z,5.429382
2023-01-04T01:47:52.072Z,5.479736
2023-01-04T01:51:17.269Z,5.489807
2023-01-04T01:54:42.503Z,5.540161
2023-01-04T01:58:07.690Z,5.540161
2023-01-04T02:01:33.037Z,5.580444
2023-01-04T02:04:58.126Z,5.489807
2023-01-04T02:08:23.317Z,5.479736
2023-01-04T02:11:48.562Z,5.39917
2023-01-04T02:15:13.777Z,5.328674
2023-01-04T02:18:38.983Z,5.429382
2023-01-04T02:22:04.154Z,5.429382
2023-01-04T02:25:29.386Z,5.429382
2023-01-04T02:28:54.584Z,5.479736
2023-01-04T02:32:19.728Z,5.489807
2023-01-04T02:35:44.921Z,5.459595
2023-01-04T02:39:10.125Z,5.429382
2023-01-04T02:42:35.296Z,5.429382
2023-01-04T02:46:00.495Z,5.449524
2023-01-04T02:49:25.651Z,5.389099
2023-01-04T02:52:50.823Z,5.39917
2023-01-04T02:56:16.056Z,5.429382
2023-01-04T02:59:41.221Z,5.348816
2023-01-04T03:03:06.662Z,5.39917
2023-01-04T03:06:31.689Z,5.389099
2023-01-04T03:09:56.887Z,5.308533
2023-01-04T03:13:22.094Z,5.27832
2023-01-04T03:16:47.316Z,5.248108
2023-01-04T03:20:12.549Z,5.26825
2023-01-04T03:23:37.716Z,5.217896
2023-01-04T03:27:02.943Z,5.308533
2023-01-04T03:30:28.106Z,5.419312
2023-01-04T03:33:53.308Z,5.449524
2023-01-04T03:37:18.535Z,5.489807
2023-01-04T03:40:43.710Z,5.479736
2023-01-04T03:44:08.885Z,5.509949
2023-01-04T03:47:34.022Z,5.479736
2023-01-04T03:50:59.239Z,5.509949
2023-01-04T03:54:24.466Z,5.429382
2023-01-04T03:57:49.641Z,5.449524
2023-01-04T04:01:14.973Z,5.449524
2023-01-04T04:04:40.018Z,5.509949
2023-01-04T04:08:05.182Z,5.429382
2023-01-04T04:11:30.445Z,5.429382
2023-01-04T04:14:55.611Z,5.39917
2023-01-04T04:18:20.791Z,5.358887
2023-01-04T04:21:46.009Z,5.348816
2023-01-04T04:25:11.204Z,5.389099
2023-01-04T04:28:36.410Z,5.389099
2023-01-04T04:32:01.594Z,5.358887
2023-01-04T04:35:26.898Z,5.248108
2023-01-04T04:38:52.085Z,5.27832
2023-01-04T04:42:17.355Z,5.358887
2023-01-04T04:45:42.643Z,5.217896
2023-01-04T04:49:07.845Z,5.167542
2023-01-04T04:52:33.053Z,5.217896
2023-01-04T04:55:58.304Z,5.248108
2023-01-04T04:59:23.733Z,5.217896
2023-01-04T05:02:49.053Z,5.097046
2023-01-04T05:06:14.200Z,5.086975
2023-01-04T05:09:39.432Z,5.127258
2023-01-04T05:13:04.612Z,5.097046
2023-01-04T05:16:29.849Z,5.167542
2023-01-04T05:19:55.047Z,5.066833
2023-01-04T05:23:20.245Z,4.956055
2023-01-04T05:26:45.461Z,5.02655
2023-01-04T05:30:10.660Z,5.036621
2023-01-04T05:33:35.899Z,5.086975
2023-01-04T05:37:01.153Z,4.966125
2023-01-04T05:40:26.385Z,4.855347
2023-01-04T05:43:51.619Z,4.77478
2023-01-04T05:47:16.851Z,4.734497
2023-01-04T05:50:42.073Z,4.855347
2023-01-04T05:54:07.312Z,4.845276
2023-01-04T05:57:32.551Z,4.885559
2023-01-04T06:00:57.873Z,5.117188
2023-01-04T06:04:23.141Z,5.308533
2023-01-04T06:07:48.339Z,5.348816
2023-01-04T06:11:13.599Z,5.097046
2023-01-04T06:14:38.788Z,4.905701
2023-01-04T06:18:07.518Z,4.845276
2023-01-04T06:21:29.227Z,4.804993
2023-01-04T06:24:54.417Z,4.815063
2023-01-04T06:28:20.211Z,4.855347
2023-01-04T06:31:45.430Z,4.815063
2023-01-04T06:35:10.704Z,4.915771
2023-01-04T06:38:35.989Z,4.784851
2023-01-04T06:42:06.015Z,4.734497
2023-01-04T06:45:26.615Z,4.784851
2023-01-04T06:48:51.838Z,4.724426
2023-01-04T06:52:17.181Z,4.664001
2023-01-04T06:55:42.459Z,4.664001
2023-01-04T06:59:07.767Z,4.694214
2023-01-04T07:02:33.240Z,4.704285
2023-01-04T07:05:58.275Z,4.653931
2023-01-04T07:09:23.504Z,4.623718
2023-01-04T07:12:48.752Z,4.543152
2023-01-04T07:16:14.055Z,4.52301
2023-01-04T07:19:39.332Z,4.512939
2023-01-04T07:23:04.649Z,4.52301
2023-01-04T07:26:29.924Z,4.543152
2023-01-04T07:29:55.228Z,4.583435
2023-01-04T07:33:20.524Z,4.412231
2023-01-04T07:36:45.828Z,4.291382
2023-01-04T07:40:11.090Z,4.220886
2023-01-04T07:43:36.405Z,4.150391
2023-01-04T07:47:01.673Z,3.999329
2023-01-04T07:50:26.951Z,4.180603
2023-01-04T07:53:52.209Z,3.959045
2023-01-04T07:57:17.476Z,3.787842
2023-01-04T08:00:42.784Z,3.687134
2023-01-04T08:04:08.118Z,3.566284
2023-01-04T08:07:33.363Z,3.536072
2023-01-04T08:10:58.700Z,3.505859
2023-01-04T08:14:24.006Z,3.465576
2023-01-04T08:17:49.246Z,3.495789
2023-01-04T08:21:14.496Z,3.566284
2023-01-04T08:24:39.809Z,3.536072
2023-01-04T08:28:05.107Z,3.566284
2023-01-04T08:31:30.378Z,3.576355
2023-01-04T08:34:55.613Z,3.687134
2023-01-04T08:38:57.857Z,3.687134
2023-01-04T08:41:57.728Z,3.687134
2023-01-04T08:45:11.448Z,3.717346
2023-01-04T08:48:36.662Z,3.777771
2023-01-04T08:52:01.967Z,3.858337
2023-01-04T08:55:27.206Z,3.868408
2023-01-04T08:58:52.420Z,3.797913
2023-01-04T09:02:17.799Z,3.777771
2023-01-04T09:05:42.871Z,3.838196
2023-01-04T09:09:08.104Z,3.928833
2023-01-04T09:12:33.306Z,3.908691
2023-01-04T09:15:58.549Z,3.979187
2023-01-04T09:19:23.857Z,3.979187
2023-01-04T09:22:48.974Z,3.999329
2023-01-04T09:26:14.199Z,4.110107
2023-01-04T09:29:39.452Z,4.089966
2023-01-04T09:33:04.625Z,4.01947
2023-01-04T09:36:29.864Z,4.079895
2023-01-04T09:39:55.067Z,4.110107
2023-01-04T09:43:21.991Z,4.160461
2023-01-04T09:46:45.562Z,4.059753
2023-01-04T09:50:10.755Z,4.14032
2023-01-04T09:53:36.017Z,4.079895
2023-01-04T09:57:01.247Z,4.079895
2023-01-04T10:00:26.524Z,4.150391
2023-01-04T10:03:51.810Z,4.241028
2023-01-04T10:07:16.933Z,4.241028
2023-01-04T10:10:42.185Z,4.230957
2023-01-04T10:14:07.402Z,4.261169
2023-01-04T10:21:23.492Z,4.301453
2023-01-04T10:24:23.076Z,4.371948
2023-01-04T10:27:48.310Z,4.442444
2023-01-04T10:31:39.211Z,4.412231
2023-01-04T10:34:38.758Z,4.442444
2023-01-04T10:38:03.996Z,4.52301
2023-01-04T10:41:29.284Z,4.543152
2023-01-04T10:44:54.558Z,4.543152
2023-01-04T10:48:19.795Z,4.52301
2023-01-04T10:51:45.055Z,4.603577
2023-01-04T10:55:10.302Z,4.724426
2023-01-04T10:58:35.654Z,4.694214
2023-01-04T11:02:01.161Z,4.694214
2023-01-04T11:05:26.129Z,4.653931
2023-01-04T11:08:51.379Z,4.674072
2023-01-04T11:12:16.608Z,4.633789
2023-01-04T11:15:42.212Z,4.694214
2023-01-04T11:19:07.559Z,4.704285
2023-01-04T11:22:32.781Z,4.704285
2023-01-04T11:25:58.108Z,4.694214
2023-01-04T11:29:23.439Z,4.754639
2023-01-04T11:32:48.689Z,4.664001
2023-01-04T11:36:14.356Z,4.664001
2023-01-04T11:39:39.607Z,4.694214
2023-01-04T11:43:04.883Z,4.724426
2023-01-04T11:46:30.334Z,4.835205
2023-01-04T11:49:55.432Z,4.845276
2023-01-04T11:53:20.713Z,4.885559
2023-01-04T11:56:45.951Z,4.986267
2023-01-04T12:00:11.213Z,5.036621
2023-01-04T12:03:36.502Z,5.056763
2023-01-04T12:07:01.743Z,5.036621
2023-01-04T12:10:27.456Z,5.066833
2023-01-04T12:13:52.258Z,5.086975
2023-01-04T12:17:17.574Z,4.986267
2023-01-04T12:20:42.848Z,4.996338
2023-01-04T12:24:08.092Z,5.066833
2023-01-04T12:27:33.385Z,5.097046
2023-01-04T12:30:58.634Z,5.1474
2023-01-04T12:34:23.908Z,5.167542
2023-01-04T12:37:49.269Z,5.167542
2023-01-04T12:41:14.437Z,5.127258
2023-01-04T12:44:39.759Z,5.207825
2023-01-04T12:48:04.961Z,5.298462
2023-01-04T12:51:31.949Z,5.26825
2023-01-04T12:54:55.540Z,5.298462
2023-01-04T12:58:28.266Z,5.27832
2023-01-04T13:01:46.215Z,5.298462
2023-01-04T13:05:53.949Z,5.308533
2023-01-04T13:08:36.658Z,5.39917
2023-01-04T13:12:01.909Z,5.449524
2023-01-04T13:15:27.151Z,5.479736
2023-01-04T13:18:52.530Z,5.489807
2023-01-04T13:22:17.897Z,5.560303
2023-01-04T13:25:43.039Z,5.610657
2023-01-04T13:29:08.308Z,5.600586
2023-01-04T13:32:42.327Z,5.640869
2023-01-04T13:35:58.818Z,5.681152
2023-01-04T13:39:24.106Z,5.761719
2023-01-04T13:42:49.628Z,5.862427
2023-01-04T13:46:15.079Z,5.912781
2023-01-04T13:49:40.278Z,5.90271
2023-01-04T13:53:08.370Z,5.973206
2023-01-04T13:56:56.043Z,6.083984
2023-01-04T14:00:21.000Z,6.094055
2023-01-04T14:03:46.355Z,6.003418
2023-01-04T14:07:11.541Z,5.963135
2023-01-04T14:10:36.924Z,6.003418
2023-01-04T14:14:02.179Z,6.114197
2023-01-04T14:17:27.447Z,6.15448
2023-01-04T14:20:52.778Z,6.144409
2023-01-04T14:24:28.007Z,6.124268
2023-01-04T14:27:43.410Z,6.144409
2023-01-04T15:05:01.961Z,6.355896
2023-01-04T15:08:27.187Z,6.325684
2023-01-04T15:11:52.505Z,6.335754
2023-01-04T15:15:17.772Z,6.376038
2023-01-04T15:18:43.121Z,6.426392
2023-01-04T15:22:08.412Z,6.40625
2023-01-04T15:25:33.682Z,6.40625
2023-01-04T15:28:58.953Z,6.426392
2023-01-04T15:32:24.208Z,6.426392
2023-01-04T15:35:49.577Z,6.486816
2023-01-04T15:39:14.940Z,6.476746
2023-01-04T15:42:40.161Z,6.517029
2023-01-04T15:46:05.562Z,6.506958
2023-01-04T15:49:30.755Z,6.476746
2023-01-04T15:52:55.999Z,6.577454
2023-01-04T15:56:21.282Z,6.53717
2023-01-04T15:59:46.564Z,6.53717
2023-01-04T16:03:12.082Z,6.517029
2023-01-04T16:06:37.347Z,6.53717
2023-01-04T16:10:02.762Z,6.517029
2023-01-04T16:13:28.179Z,6.506958
2023-01-04T16:16:53.424Z,6.517029
2023-01-04T16:20:18.728Z,6.53717
2023-01-04T16:23:43.981Z,6.53717
2023-01-04T16:27:09.231Z,6.547241
2023-01-04T16:30:34.592Z,6.517029
2023-01-04T16:33:59.817Z,6.557312
2023-01-04T16:37:25.086Z,6.738586
2023-01-04T16:40:50.426Z,6.799011
2023-01-04T16:44:15.710Z,6.738586
2023-01-04T16:47:41.040Z,6.768799
2023-01-04T16:51:06.306Z,6.809082
2023-01-04T16:54:31.593Z,6.879578
2023-01-04T16:57:56.899Z,6.879578
2023-01-04T17:01:22.331Z,6.799011
2023-01-04T17:04:47.493Z,6.738586
2023-01-04T17:08:12.744Z,6.738586
2023-01-04T17:12:18.924Z,6.728516
2023-01-04T17:18:28.607Z,6.839294
2023-01-04T17:21:53.893Z,6.869507
2023-01-04T17:25:19.189Z,6.940002
2023-01-04T17:28:44.517Z,6.970215
2023-01-04T17:32:10.583Z,6.940002
2023-01-04T17:35:35.777Z,6.990356
2023-01-04T17:39:01.061Z,6.980286
2023-01-04T17:42:26.289Z,7.020569
2023-01-04T17:45:51.552Z,6.990356
2023-01-04T17:49:30.757Z,7.03064
2023-01-04T17:52:43.513Z,6.990356
2023-01-04T17:56:09.508Z,7.121277
2023-01-04T17:59:35.425Z,7.171631
2023-01-04T18:03:01.817Z,7.242126
2023-01-04T18:06:27.468Z,7.232056
2023-01-04T18:09:53.053Z,7.242126
2023-01-04T18:13:18.704Z,7.232056
2023-01-04T18:16:46.038Z,7.242126
2023-01-04T18:20:12.403Z,7.211914
2023-01-04T18:23:37.879Z,7.322693
2023-01-04T18:30:29.686Z,7.28241
2023-01-04T18:33:55.706Z,7.28241
2023-01-04T18:37:21.664Z,7.322693
2023-01-04T18:40:48.273Z,7.322693
2023-01-04T18:45:04.694Z,7.312622
2023-01-04T18:48:31.312Z,7.373047
2023-01-04T18:51:57.832Z,7.342834
2023-01-04T18:55:25.098Z,7.393188
2023-01-04T18:58:51.722Z,7.433472
2023-01-04T19:02:18.617Z,7.433472
2023-01-04T19:05:44.792Z,7.493896
2023-01-04T19:09:11.339Z,7.493896
2023-01-04T19:12:37.577Z,7.483826
2023-01-04T19:16:03.610Z,7.463684
2023-01-04T19:19:28.901Z,7.453613
2023-01-04T19:22:54.190Z,7.503967
2023-01-04T19:26:19.449Z,7.524109
2023-01-04T19:29:44.722Z,7.483826
2023-01-04T19:33:10.106Z,7.493896
2023-01-04T19:36:35.421Z,7.483826
2023-01-04T19:40:00.773Z,7.53418
2023-01-04T19:43:26.065Z,7.53418
2023-01-04T19:46:51.429Z,7.584534
2023-01-04T19:50:16.694Z,7.554321
2023-01-04T19:53:43.000Z,7.604675
2023-01-04T19:57:08.365Z,7.614746
2023-01-04T20:00:33.847Z,7.614746
2023-01-04T20:08:18.458Z,7.685242
2023-01-04T20:11:43.750Z,7.715454
2023-01-04T20:15:09.071Z,7.705383
2023-01-04T20:18:34.382Z,7.675171
2023-01-04T20:21:59.760Z,7.715454
2023-01-04T20:25:25.124Z,7.715454
2023-01-04T20:28:50.459Z,7.745667
2023-01-04T20:32:15.837Z,7.705383
2023-01-04T20:35:41.120Z,7.745667
2023-01-04T20:39:06.604Z,7.846375
2023-01-04T20:42:31.993Z,7.886658
2023-01-04T20:45:57.479Z,7.926941
2023-01-04T20:49:22.785Z,7.926941
2023-01-04T20:52:48.264Z,7.947083
2023-01-04T20:56:13.680Z,7.997437
2023-01-04T20:59:39.755Z,8.03772
2023-01-04T21:03:05.443Z,8.047791
2023-01-04T21:06:30.519Z,8.03772
2023-01-04T21:09:55.839Z,8.067932
2023-01-04T21:13:21.170Z,7.947083
2023-01-04T21:16:46.540Z,8.017578
2023-01-04T21:20:11.852Z,7.977295
2023-01-04T21:23:37.248Z,8.017578
2023-01-04T21:27:02.535Z,8.078003
2023-01-04T21:30:27.879Z,8.047791
2023-01-04T21:33:53.240Z,8.017578
2023-01-04T21:37:18.538Z,8.078003
2023-01-04T21:40:43.886Z,8.067932
2023-01-04T21:44:09.125Z,8.118286
2023-01-04T21:47:34.415Z,8.067932
2023-01-04T21:50:59.686Z,8.098145
2023-01-04T21:54:25.056Z,8.067932
2023-01-04T21:57:51.193Z,8.098145
2023-01-04T22:01:16.707Z,8.067932
2023-01-04T22:04:41.876Z,8.078003
2023-01-04T22:08:07.180Z,8.03772
2023-01-04T22:11:32.459Z,8.078003
2023-01-04T22:14:57.735Z,8.188782
2023-01-04T22:18:23.034Z,8.218994
2023-01-04T22:21:48.378Z,8.158569
2023-01-04T22:25:13.695Z,8.198853
2023-01-04T22:28:39.028Z,8.218994
2023-01-04T22:32:04.369Z,8.218994
2023-01-04T22:35:29.695Z,8.198853
2023-01-04T22:38:55.059Z,8.198853
2023-01-04T22:42:20.425Z,8.279419
2023-01-04T22:45:45.808Z,8.259277
2023-01-04T22:49:11.166Z,8.198853
2023-01-04T22:52:36.532Z,8.249207
2023-01-04T22:59:27.283Z,8.229065
2023-01-04T23:02:52.627Z,8.188782
2023-01-04T23:06:17.910Z,8.218994
2023-01-04T23:09:43.223Z,8.299561
2023-01-04T23:13:08.671Z,8.279419
2023-01-04T23:16:34.084Z,8.218994
2023-01-04T23:19:59.264Z,8.188782
2023-01-04T23:23:24.563Z,8.188782
2023-01-04T23:26:49.831Z,8.229065
2023-01-04T23:30:15.150Z,8.299561
2023-01-04T23:33:40.472Z,8.259277
2023-01-04T23:37:05.821Z,8.198853
2023-01-04T23:40:31.134Z,8.279419
2023-01-04T23:43:56.524Z,8.218994
2023-01-04T23:47:20.381Z,8.198853
2023-01-04T23:50:45.691Z,8.178711
2023-01-04T23:54:11.054Z,8.188782
2023-01-04T23:57:36.418Z,8.198853
